Impacts TAF Board INFO
FOR SITUATIONAL AWARENESS. NOT TO BE USED FOR FLIGHT PLANNING PURPOSES.
IDs:

KSTL - St Louis/Lambert Int, MO, US

Issued at 1725 UTC 18 Dec 2017
Updated at 2016 UTC 18 Dec 2017
Potential Impact None Slight Moderate High
Time1951Z 18/21Z 18/22Z 18/23Z 19/00Z 19/01Z 19/02Z 19/03Z 19/04Z 19/05Z 19/06Z 19/07Z 19/08Z 19/09Z>>
Type OBS PRVL PRVL PRVL PRVL PRVL PRVL PRVL PRVL PRVL PRVL PRVL PRVL PRVL
VIS 10 >6 >6 >6 >6 >6 >6 >6 >6 >6 >6 >6 >6 >6
CIG 31 -- -- -- -- -- -- -- -- -- -- -- -- --
Cover BKN SCT SCT SCT SCT SCT SCT SCT SCT SCT SCT SCT SCT SCT
FltCat VFR VFR VFR VFR VFR VFR VFR VFR VFR VFR VFR VFR VFR VFR
WX -- -- -- -- -- -- -- -- -- -- -- -- -- --
WDir 220 240 240 240 240 240 240 240 240 240 240 240 240 240
WSpd 10 10 10 10 8 8 8 8 8 8 8 8 8 8
WGst 17 -- -- -- -- -- -- -- -- -- -- -- -- --

Raw TAF
KSTL 181725Z 1818/1924 25008KT P6SM OVC025
  FM182000 24010KT P6SM SCT035
  FM190000 24008KT P6SM SCT250
  FM192000 30006KT P6SM SCT090


Raw METAR
KSTL 181951Z 22010G17KT 10SM BKN031 11/05 A3003 RMK AO2 SLP171 T01060050
KSTL 181851Z 24011KT 10SM OVC029 10/05 A3004 RMK AO2 SLP175 T01000050
KSTL 181810Z 24012KT 10SM OVC028 09/05 A3006 RMK AO2 T00940050
KSTL 181751Z 25011KT 10SM OVC030 09/05 A3007 RMK AO2 SLP185 60000 T00940050 10094 20078 58007

METAR Board
Radar Display
Forecast Discussion

FOR SITUATIONAL AWARENESS. NOT TO BE USED FOR FLIGHT PLANNING PURPOSES.